Aérodrome :
LOGIN :

S'inscrire | Disclaimer

   EN    FR    IT 

 










Légende :    VFR   VFR Marginal   IFR   IFR Intensif   IFR Très Intensif
Visi : 
Plafond : 
>= 8 km
>= 3000ft
5 à 8 km
1000 à 3000 ft
1500m à 5 km
500 à 1000 ft
800 à 1500m
200 à 500 ft
< 800m
< 200 ft
Symboles :   Orages  Brouillard  Fortes neiges  Fortes précipitations  Vent > 20 kt
SIGMETs :   Divers  Orages  Givrage  Turbulence  Onde Orograph.  Cendres Volcan.







- Altitude de l'aérodrome : 1058 ft
- Code IATA : SCN


EDDR - Saarbrücken

DERNIER METAR :
  • 181550Z 27014KT 9999 FEW018 07/01 Q1003 NOSIG

METARs EXPIRÉS :
  • 181520Z 28015KT 9999 FEW018 07/02 Q1002 NOSIG
  • 181450Z 27018KT 9999 FEW012 SCT060 08/02 Q1002 NOSIG
  • 181420Z 27022KT 9999 FEW009 SCT020 08/03 Q1002 NOSIG
  • 181350Z 27020G30KT 9999 FEW009 SCT020TCU BKN040 08/04 Q1002 NOSIG
  • 181320Z 27018KT 9999 SCT011 SCT017TCU 09/06 Q1002 NOSIG

TAF TAF EDDR
Valide du 18 à 12h jusqu'au 19 à 12h UTC


181100Z 1812/1912 24020G40KT 9999 BKN010
TEMPO 1812/1815 26025G45KT SHRA BKN005CB
PROB40
TEMPO 1812/1814 28030G50KT
BECMG 1815/1817 26015G25KT SCT010
TEMPO 1815/1821 26020G30KT SHRA BKN008CB
BECMG 1817/1819 26012KT
PROB40
TEMPO 1821/1912 2500 SHSNRA BKN005CB
PROB30
TEMPO 1906/1912 1200 SHSN
Pas de NOTAMs connus pour ce terrain.
1 SIGMET publié pour la FIR Langen (EDGG) :
 
Turbulence forte
EDGG SIGMET 5 VALID 181500/181700 EDZF
EDGG LANGEN FIR SEV TURB FCST NE OF LINE N4920 E01045 - N5215 E00740 SFC/FL060 MOV E 30KT NC=



MET'MAP, la Météo Aéronautique d'un coup d'oeil ! - Copyright ORBIFLY Décembre 2007 - Disclaimer

ORBIFLY MET'MAP TEAM :

Programmation & Développement : Alexandra Zaïnal
Conception & Développement : Baudouin d'Aumeries
Co-Programmation & Développement : Marc-Olivier Méhu
Soutien technique & logistique : Manuel Goepfert

Contact : metmap@orbifly.com




SOURCES & CREDITS :

   NOAA